Airfield :
LOGIN :

Register | Disclaimer

   EN    FR    IT 

 










Legend :    VFR   Marginal VFR   IFR   Intensive IFR   Very Intensive IFR
Visi :
Ceiling :
>= 8 km
>= 3000ft
5 to 8 km
1000 to 3000 ft
1500m to 5 km
500 to 1000 ft
800 to 1500m
200 to 500 ft
< 800m
< 200 ft
Symbols :   Thunderstorms  Fog  Heavy snow  Heavy precipitations  Wind > 20 kt
SIGMETs :     Misc.  Thunderstorms  Icing  Turbulence  Mountain Waves  Volcanic Ashes







- Airport Elevation : 436 ft
- IATA code : BTS


LZIB - Bratislava

CURRENT METAR :
  • 180430Z 05003KT CAVOK 17/14 Q1018 NOSIG

EXPIRED METARs :
  • 180400Z 02002KT CAVOK 17/14 Q1017 NOSIG
  • 180330Z 36003KT CAVOK 18/14 Q1017
  • 180300Z 36003KT CAVOK 18/14 Q1017
  • 180230Z 03003KT CAVOK 18/14 Q1017
  • 180200Z 01002KT CAVOK 18/13 Q1017

TAF TAF LZIB
Valid from the 18 at 00:00 until the 19 at 00:00 UTC


172300Z 1800/1900 03004KT CAVOK
TEMPO 1809/1812 13006KT 9999 SCT045
TEMPO 1812/1814 28008KT
No reported NOTAMs for that airfield.



MET'MAP, your aeronautical weather chart ! - Copyright ORBIFLY December 2007 - Disclaimer

ORBIFLY MET'MAP TEAM :

Programming & Development : Alexandra Zaïnal
Concept & Development : Baudouin d'Aumeries
Co-Development & Prog : Marc-Olivier Méhu
Technical & hardware support : Manuel Goepfert

Contact : metmap@orbifly.com




SOURCES & CREDITS :

   NOAA